createdAt,value
2022-10-01T00:03:04.153Z,6.00
2022-10-01T00:08:05.735Z,5.93
2022-10-01T00:13:07.224Z,6.22
2022-10-01T00:18:10.618Z,6.88
2022-10-01T00:23:13.951Z,7.63
2022-10-01T00:28:15.502Z,7.50
2022-10-01T00:33:16.985Z,8.15
2022-10-01T00:38:18.432Z,8.18
2022-10-01T00:43:24.462Z,8.20
2022-10-01T00:48:29.391Z,7.03
2022-10-01T00:53:32.797Z,6.57
2022-10-01T00:58:34.267Z,6.05
2022-10-01T01:03:35.756Z,5.88
2022-10-01T01:08:37.245Z,4.97
2022-10-01T01:14:13.314Z,5.15
2022-10-01T01:19:36.180Z,5.20
2022-10-01T01:24:49.904Z,4.55
2022-10-01T01:30:06.710Z,3.80
2022-10-01T01:35:11.205Z,3.00
2022-10-01T01:40:16.400Z,3.22
2022-10-01T01:45:24.333Z,2.22
2022-10-01T01:50:29.420Z,2.50
2022-10-01T01:55:32.230Z,2.50
2022-10-01T02:00:33.750Z,1.90
2022-10-01T02:05:49.077Z,2.03
2022-10-01T02:11:15.343Z,1.98
2022-10-01T02:16:21.062Z,2.00
2022-10-01T02:21:32.859Z,2.00
2022-10-01T02:26:37.438Z,2.70
2022-10-01T02:31:41.140Z,2.72
2022-10-01T02:36:45.263Z,3.17
2022-10-01T02:41:48.111Z,3.25
2022-10-01T02:47:06.216Z,3.20
2022-10-01T02:52:40.596Z,3.00
2022-10-01T02:57:42.288Z,3.08
2022-10-01T03:02:43.786Z,2.75
2022-10-01T03:07:45.491Z,2.53
2022-10-01T03:12:47.011Z,2.85
2022-10-01T03:17:52.568Z,3.13
2022-10-01T03:22:54.018Z,2.97
2022-10-01T03:27:55.496Z,3.38
2022-10-01T03:32:56.948Z,3.60
2022-10-01T03:37:58.527Z,3.50
2022-10-01T03:43:00.001Z,3.72
2022-10-01T03:48:01.610Z,4.15
2022-10-01T03:53:03.066Z,4.22
2022-10-01T03:58:04.887Z,4.82
2022-10-01T04:03:06.774Z,4.40
2022-10-01T04:08:08.594Z,3.70
2022-10-01T04:13:10.097Z,4.00
2022-10-01T04:18:12.160Z,3.90
2022-10-01T04:23:13.810Z,4.18
2022-10-01T04:28:15.984Z,3.88
2022-10-01T04:33:17.575Z,3.55
2022-10-01T04:38:19.023Z,3.33
2022-10-01T04:43:20.505Z,3.72
2022-10-01T04:48:22.066Z,3.60
2022-10-01T04:53:23.635Z,3.30
2022-10-01T04:58:25.124Z,3.97
2022-10-01T05:03:26.651Z,4.22
2022-10-01T05:08:28.654Z,3.10
2022-10-01T05:13:31.841Z,3.97
2022-10-01T05:18:33.603Z,3.55
2022-10-01T05:23:35.085Z,4.28
2022-10-01T05:28:36.768Z,3.67
2022-10-01T05:33:38.410Z,3.67
2022-10-01T05:38:39.891Z,4.03
2022-10-01T05:43:41.371Z,4.20
2022-10-01T05:48:42.842Z,3.22
2022-10-01T05:53:50.551Z,4.22
2022-10-01T05:58:52.147Z,2.92
2022-10-01T06:03:53.602Z,2.83
2022-10-01T06:08:55.051Z,3.20
2022-10-01T06:13:56.501Z,3.90
2022-10-01T06:18:58.211Z,2.95
2022-10-01T06:23:59.803Z,3.47
2022-10-01T06:29:02.779Z,2.90
2022-10-01T06:34:04.351Z,2.83
2022-10-01T06:39:05.847Z,3.60
2022-10-01T06:44:07.511Z,2.75
2022-10-01T06:49:09.056Z,3.22
2022-10-01T06:54:10.695Z,3.30
2022-10-01T06:59:12.235Z,3.55
2022-10-01T07:04:13.741Z,3.03
2022-10-01T07:09:15.196Z,2.50
2022-10-01T07:14:16.658Z,1.33
2022-10-01T07:19:18.112Z,1.50
2022-10-01T07:24:19.590Z,2.20
2022-10-01T07:29:23.851Z,1.40
2022-10-01T07:34:31.027Z,1.50
2022-10-01T07:39:32.643Z,1.17
2022-10-01T07:44:34.155Z,0.80
2022-10-01T07:49:35.620Z,1.00
2022-10-01T07:54:37.100Z,1.10
2022-10-01T07:59:40.331Z,1.65
2022-10-01T08:05:00.787Z,1.63
2022-10-01T08:10:04.687Z,1.73
2022-10-01T08:15:08.234Z,2.17
2022-10-01T08:20:12.006Z,2.30
2022-10-01T08:25:13.447Z,2.00
2022-10-01T08:30:14.967Z,2.67
2022-10-01T08:35:16.491Z,3.45
2022-10-01T08:40:21.540Z,3.13
2022-10-01T08:45:52.977Z,3.72
2022-10-01T08:51:00.677Z,3.67
2022-10-01T08:56:03.970Z,3.20
2022-10-01T09:01:05.618Z,2.80
2022-10-01T09:06:17.989Z,2.72
2022-10-01T09:11:29.432Z,3.08
2022-10-01T09:16:41.027Z,2.53
2022-10-01T09:21:48.535Z,3.08
2022-10-01T09:26:50.317Z,3.17
2022-10-01T09:31:53.649Z,2.80
2022-10-01T09:37:08.022Z,2.17
2022-10-01T09:42:09.649Z,2.88
2022-10-01T09:47:20.230Z,3.20
2022-10-01T09:52:27.093Z,2.40
2022-10-01T09:57:33.738Z,2.45
2022-10-01T10:09:30.853Z,2.37
2022-10-01T10:14:36.185Z,2.90
2022-10-01T10:19:38.250Z,1.80
2022-10-01T10:24:39.794Z,1.80
2022-10-01T10:29:41.265Z,2.03
2022-10-01T10:34:47.006Z,3.67
2022-10-01T10:39:51.480Z,3.05
2022-10-01T10:44:56.619Z,3.05
2022-10-01T10:50:02.434Z,3.08
2022-10-01T10:55:23.393Z,3.33
2022-10-01T11:00:26.295Z,3.13
2022-10-01T11:05:32.049Z,2.80
2022-10-01T11:10:38.244Z,2.58
2022-10-01T11:16:18.258Z,3.35
2022-10-01T11:21:41.734Z,3.22
2022-10-01T11:27:01.154Z,2.72
2022-10-01T11:32:19.371Z,2.28
2022-10-01T11:37:53.155Z,2.70
2022-10-01T11:43:01.927Z,3.25
2022-10-01T11:48:41.421Z,2.78
2022-10-01T11:53:56.270Z,2.47
2022-10-01T11:59:08.128Z,3.05
2022-10-01T12:04:34.130Z,2.47
2022-10-01T12:09:55.881Z,2.25
2022-10-01T12:20:37.336Z,2.80
2022-10-01T12:26:05.370Z,2.47
2022-10-01T12:31:22.231Z,3.53
2022-10-01T12:36:37.061Z,3.10
2022-10-01T12:41:52.042Z,3.08
2022-10-01T12:47:21.757Z,2.65
2022-10-01T12:52:42.434Z,3.03
2022-10-01T12:58:04.001Z,2.55
2022-10-01T13:03:23.742Z,2.55
2022-10-01T13:08:31.125Z,3.47
2022-10-01T13:18:35.974Z,3.25
2022-10-01T13:23:49.335Z,3.00
2022-10-01T13:29:02.545Z,3.30
2022-10-01T13:34:24.331Z,2.72
2022-10-01T13:39:36.584Z,2.80
2022-10-01T13:44:41.188Z,2.60
2022-10-01T13:49:42.932Z,3.83
2022-10-01T13:54:47.945Z,2.55
2022-10-01T13:59:58.802Z,2.30
2022-10-01T14:05:28.158Z,2.42
2022-10-01T14:10:59.455Z,3.05
2022-10-01T14:16:03.247Z,2.92
2022-10-01T14:21:20.109Z,2.88
2022-10-01T14:26:31.940Z,2.70
2022-10-01T14:31:59.092Z,3.22
2022-10-01T14:37:01.006Z,2.63
2022-10-01T14:42:16.987Z,2.72
2022-10-01T14:47:23.863Z,3.60
2022-10-01T14:52:31.354Z,3.10
2022-10-01T14:57:43.757Z,2.80
2022-10-01T15:02:49.407Z,2.63
2022-10-01T15:07:50.886Z,2.50
2022-10-01T15:12:53.684Z,2.72
2022-10-01T15:17:55.650Z,2.83
2022-10-01T15:23:01.279Z,2.78
2022-10-01T15:28:14.830Z,2.85
2022-10-01T15:33:27.722Z,2.60
2022-10-01T15:38:31.520Z,2.88
2022-10-01T15:43:37.565Z,2.85
2022-10-01T15:48:39.090Z,3.65
2022-10-01T15:53:40.964Z,2.97
2022-10-01T15:58:56.064Z,5.30
2022-10-01T16:04:09.946Z,3.22
2022-10-01T16:09:21.890Z,3.20
2022-10-01T16:14:47.269Z,2.67
2022-10-01T16:19:54.874Z,2.72
2022-10-01T16:25:01.755Z,3.15
2022-10-01T16:30:23.601Z,4.90
2022-10-01T16:35:32.496Z,3.55
2022-10-01T16:40:39.056Z,3.30
2022-10-01T16:45:42.733Z,2.90
2022-10-01T16:50:46.381Z,3.08
2022-10-01T16:55:48.070Z,2.92
2022-10-01T17:00:49.585Z,3.05
2022-10-01T17:05:51.189Z,3.28
2022-10-01T17:10:57.637Z,3.13
2022-10-01T17:16:00.315Z,3.00
2022-10-01T17:21:05.794Z,2.33
2022-10-01T17:26:08.870Z,4.05
2022-10-01T17:31:15.616Z,8.52
2022-10-01T17:36:19.341Z,4.53
2022-10-01T17:41:21.931Z,6.13
2022-10-01T17:46:23.503Z,5.38
2022-10-01T17:51:25.818Z,10.25
2022-10-01T17:56:27.532Z,11.77
2022-10-01T18:01:29.037Z,12.48
2022-10-01T18:06:30.926Z,10.13
2022-10-01T18:11:32.961Z,21.02
2022-10-01T18:16:34.959Z,5.35
2022-10-01T18:21:36.807Z,5.18
2022-10-01T18:26:38.688Z,9.80
2022-10-01T18:31:41.332Z,12.93
2022-10-01T18:37:01.468Z,11.57
2022-10-01T18:42:14.959Z,11.82
2022-10-01T18:47:25.455Z,7.50
2022-10-01T18:52:46.731Z,9.95
2022-10-01T18:58:30.163Z,9.52
2022-10-01T19:03:39.319Z,15.02
2022-10-01T19:09:03.815Z,6.28
2022-10-01T19:14:14.035Z,5.13
2022-10-01T19:19:38.122Z,9.27
2022-10-01T19:24:54.400Z,5.00
2022-10-01T19:30:10.538Z,4.20
2022-10-01T19:35:21.617Z,3.90
2022-10-01T19:40:49.365Z,3.40
2022-10-01T19:46:15.227Z,3.92
2022-10-01T19:51:21.765Z,2.80
2022-10-01T19:56:28.285Z,4.22
2022-10-01T20:01:39.290Z,3.78
2022-10-01T20:06:44.409Z,2.95
2022-10-01T20:12:30.938Z,3.53
2022-10-01T20:18:04.078Z,3.70
2022-10-01T20:23:20.590Z,4.03
2022-10-01T20:28:36.145Z,3.88
2022-10-01T20:34:10.092Z,3.30
2022-10-01T20:39:30.924Z,3.13
2022-10-01T20:44:36.378Z,2.90
2022-10-01T20:50:09.204Z,3.28
2022-10-01T20:55:18.586Z,2.85
2022-10-01T21:00:26.518Z,3.17
2022-10-01T21:05:35.250Z,4.13
2022-10-01T21:10:46.258Z,3.60
2022-10-01T21:15:53.633Z,2.38
2022-10-01T21:21:08.331Z,3.20
2022-10-01T21:26:35.513Z,2.83
2022-10-01T21:32:00.906Z,3.27
2022-10-01T21:37:14.306Z,3.10
2022-10-01T21:42:27.008Z,3.45
2022-10-01T21:47:49.650Z,3.08
2022-10-01T21:53:23.334Z,2.80
2022-10-01T21:58:39.922Z,2.88
2022-10-01T22:03:56.516Z,2.60
2022-10-01T22:09:16.298Z,2.80
2022-10-01T22:14:20.343Z,2.47
2022-10-01T22:19:28.491Z,2.25
2022-10-01T22:24:37.545Z,2.63
2022-10-01T22:29:44.424Z,3.22
2022-10-01T22:34:54.332Z,2.97
2022-10-01T22:40:02.896Z,2.78
2022-10-01T22:45:17.254Z,2.20
2022-10-01T22:50:42.794Z,3.80
2022-10-01T22:55:44.179Z,2.53
2022-10-01T23:01:22.508Z,2.08
2022-10-01T23:12:08.485Z,1.98
2022-10-01T23:17:18.047Z,2.05
2022-10-01T23:22:37.134Z,1.50
2022-10-01T23:28:03.675Z,2.10
2022-10-01T23:33:05.114Z,1.75
2022-10-01T23:38:12.680Z,2.45
2022-10-01T23:48:26.591Z,1.95
2022-10-01T23:53:35.802Z,2.20
2022-10-01T23:58:50.013Z,2.88
